Time;durP1;ratioP1;P1;durP2;ratioP2;P2;SDS_P1;SDS_P2;PMS_P1;PMS_P2;Temp;Humidity;BMP_temperature;BMP_pressure;BME280_temperature;BME280_humidity;BME280_pressure;Samples;Min_cycle;Max_cycle;Signal;HPM_P1;HPM_P2
2021/09/01 00:01:22;;;;;;;38.28;23.60;;;;;;;20.47;58.63;96121.59;5013434;28;20022;-65
2021/09/01 00:03:48;;;;;;;40.90;24.63;;;;;;;20.70;58.49;96124.53;5010231;28;20046;-65
2021/09/01 00:06:13;;;;;;;34.53;22.10;;;;;;;19.94;57.98;96119.97;5011036;28;20462;-65
2021/09/01 00:08:38;;;;;;;32.50;22.55;;;;;;;20.00;58.30;96119.41;5010956;28;20045;-65
2021/09/01 00:11:05;;;;;;;37.10;23.25;;;;;;;20.49;58.07;96129.34;5011237;28;20038;-66
2021/09/01 00:13:30;;;;;;;36.70;23.48;;;;;;;20.65;57.66;96126.69;5011315;28;20026;-65
2021/09/01 00:15:56;;;;;;;39.45;24.63;;;;;;;20.68;57.35;96117.91;5012828;28;20037;-65
2021/09/01 00:18:21;;;;;;;34.33;23.50;;;;;;;20.67;57.69;96108.97;5011196;28;20392;-66
2021/09/01 00:20:46;;;;;;;40.10;24.35;;;;;;;20.78;57.39;96120.09;5011228;28;20030;-66
2021/09/01 00:23:14;;;;;;;51.75;27.00;;;;;;;20.92;57.13;96125.88;5010776;28;20042;-66
2021/09/01 00:25:42;;;;;;;36.97;24.35;;;;;;;20.91;56.96;96126.22;5010606;28;20030;-65
2021/09/01 00:28:08;;;;;;;30.30;21.80;;;;;;;20.32;57.08;96134.97;5012987;28;20053;-65
2021/09/01 00:30:33;;;;;;;25.13;18.45;;;;;;;19.81;58.80;96134.59;5010692;28;20496;-66
2021/09/01 00:32:58;;;;;;;33.33;20.30;;;;;;;19.72;58.65;96130.13;5009615;28;20030;-65
2021/09/01 00:35:24;;;;;;;25.58;19.63;;;;;;;19.36;59.09;96135.50;5011047;28;20570;-65
2021/09/01 00:37:49;;;;;;;32.10;20.15;;;;;;;19.50;58.91;96117.06;5010434;28;20440;-65
2021/09/01 00:40:14;;;;;;;34.95;21.75;;;;;;;19.51;58.36;96137.53;5011541;28;20431;-65
2021/09/01 00:42:40;;;;;;;40.30;22.90;;;;;;;19.36;58.72;96135.50;5010852;28;20539;-65
2021/09/01 00:45:07;;;;;;;43.17;25.33;;;;;;;19.72;58.03;96137.44;5010412;28;20136;-65
2021/09/01 00:47:35;;;;;;;36.63;22.80;;;;;;;19.71;57.75;96133.97;5010095;28;20038;-65
2021/09/01 00:50:03;;;;;;;52.90;27.33;;;;;;;19.61;57.88;96136.31;5010540;28;20096;-66
2021/09/01 00:52:29;;;;;;;41.90;25.17;;;;;;;19.67;57.71;96140.38;5012213;28;20025;-65
2021/09/01 00:54:55;;;;;;;45.17;25.10;;;;;;;19.60;57.53;96124.72;5009368;28;20129;-66
2021/09/01 00:57:21;;;;;;;85.93;34.38;;;;;;;19.62;57.46;96138.69;5010162;28;20088;-65
2021/09/01 00:59:46;;;;;;;43.22;25.92;;;;;;;19.57;57.33;96144.28;5010436;28;20034;-66
2021/09/01 01:02:11;;;;;;;55.30;29.25;;;;;;;19.56;57.57;96145.41;5008975;28;20042;-65
2021/09/01 01:04:37;;;;;;;50.92;27.33;;;;;;;19.42;57.17;96134.13;5009864;28;20029;-65
2021/09/01 01:07:05;;;;;;;41.65;24.08;;;;;;;19.53;57.12;96151.47;5010408;28;20147;-65
2021/09/01 01:09:35;;;;;;;61.88;29.05;;;;;;;19.51;57.01;96147.53;5001066;28;20026;-65
2021/09/01 01:12:04;;;;;;;73.82;31.42;;;;;;;19.46;56.80;96149.31;5009868;28;20040;-65
2021/09/01 01:14:35;;;;;;;42.22;25.42;;;;;;;19.40;56.77;96150.69;5009897;28;20038;-66
2021/09/01 01:17:02;;;;;;;56.05;28.13;;;;;;;19.28;57.02;96141.75;5008526;28;20034;-66
2021/09/01 01:19:28;;;;;;;54.70;28.58;;;;;;;19.30;57.16;96150.31;5011955;28;20113;-65
2021/09/01 01:21:53;;;;;;;47.33;26.75;;;;;;;19.30;56.93;96132.22;5010076;28;20603;-66
2021/09/01 01:24:20;;;;;;;56.08;29.45;;;;;;;19.36;56.56;96140.88;5008926;28;20100;-66
2021/09/01 01:26:45;;;;;;;49.55;26.48;;;;;;;19.26;56.54;96133.22;5009748;28;20546;-65
2021/09/01 01:29:11;;;;;;;46.15;25.33;;;;;;;19.13;56.58;96125.09;5010006;28;20033;-65
2021/09/01 01:31:38;;;;;;;89.00;36.70;;;;;;;19.14;56.57;96133.97;5009945;28;20072;-65
2021/09/01 01:34:03;;;;;;;59.80;28.67;;;;;;;19.09;56.37;96139.59;5011699;28;20014;-65
2021/09/01 01:36:29;;;;;;;69.25;31.90;;;;;;;19.10;56.77;96139.28;5009468;28;20046;-66
2021/09/01 01:38:54;;;;;;;54.30;28.52;;;;;;;18.97;56.52;96140.34;5008100;28;20046;-66
2021/09/01 01:41:20;;;;;;;80.43;34.03;;;;;;;18.94;56.46;96133.72;5009591;28;20508;-67
2021/09/01 01:43:47;;;;;;;77.05;33.17;;;;;;;18.95;56.53;96159.56;5009608;28;20030;-64
2021/09/01 01:46:12;;;;;;;72.57;32.38;;;;;;;18.86;56.57;96145.38;5011003;28;20061;-65
2021/09/01 01:48:38;;;;;;;63.95;31.08;;;;;;;18.80;56.67;96145.91;5009440;28;20546;-65
2021/09/01 01:51:03;;;;;;;60.53;28.90;;;;;;;18.82;56.74;96151.75;5009608;28;20092;-63
2021/09/01 01:53:29;;;;;;;55.80;28.73;;;;;;;18.75;56.77;96152.31;5009091;28;20069;-63
2021/09/01 01:55:55;;;;;;;55.20;28.38;;;;;;;18.70;56.71;96150.59;5008747;28;20479;-63
2021/09/01 01:58:21;;;;;;;78.47;33.10;;;;;;;18.70;56.55;96155.19;5011125;28;20089;-65
2021/09/01 02:00:46;;;;;;;75.30;33.95;;;;;;;18.54;56.72;96140.75;5008222;28;20034;-64
2021/09/01 02:03:12;;;;;;;46.75;27.20;;;;;;;18.50;56.48;96154.06;5009577;28;20042;-63
2021/09/01 02:05:37;;;;;;;46.75;25.65;;;;;;;18.56;56.64;96150.06;5008961;28;20030;-64
2021/09/01 02:08:03;;;;;;;77.28;33.83;;;;;;;18.56;56.59;96139.28;5009193;28;20041;-63
2021/09/01 02:10:28;;;;;;;63.10;29.92;;;;;;;18.52;56.53;96132.97;5011384;28;20536;-64
2021/09/01 02:12:53;;;;;;;86.85;34.80;;;;;;;18.52;56.31;96137.56;5009333;28;20506;-63
2021/09/01 02:15:19;;;;;;;69.65;31.17;;;;;;;18.49;56.21;96138.25;5008705;28;20561;-64
2021/09/01 02:17:44;;;;;;;62.33;30.23;;;;;;;18.27;56.56;96128.56;5007475;28;20068;-64
2021/09/01 02:20:11;;;;;;;81.95;35.20;;;;;;;18.31;56.99;96143.75;5007731;28;20737;-63
2021/09/01 02:22:37;;;;;;;59.05;28.75;;;;;;;18.30;57.06;96142.19;5008343;28;20550;-64
2021/09/01 02:25:04;;;;;;;82.03;34.42;;;;;;;18.34;56.81;96155.78;5009584;28;20037;-63
2021/09/01 02:27:29;;;;;;;68.60;30.45;;;;;;;18.33;56.66;96156.91;5008431;28;20034;-65
2021/09/01 02:29:54;;;;;;;55.58;28.52;;;;;;;18.16;56.53;96134.34;5007632;28;20419;-63
2021/09/01 02:32:20;;;;;;;71.97;32.15;;;;;;;18.21;56.60;96144.16;5008989;28;20041;-63
2021/09/01 02:34:45;;;;;;;79.10;32.63;;;;;;;18.14;56.66;96141.19;5008612;28;20523;-63
2021/09/01 02:37:11;;;;;;;80.15;32.67;;;;;;;18.22;56.47;96153.00;5010297;28;20395;-64
2021/09/01 02:39:36;;;;;;;70.60;31.27;;;;;;;18.21;56.59;96168.38;5006936;28;20049;-69
2021/09/01 02:42:02;;;;;;;79.68;33.35;;;;;;;18.25;56.57;96160.44;5007339;28;20045;-63
2021/09/01 02:44:29;;;;;;;61.13;30.00;;;;;;;18.15;56.33;96150.84;5008292;28;20184;-64
2021/09/01 02:46:54;;;;;;;59.63;28.90;;;;;;;18.19;56.31;96157.16;5007221;28;20046;-64
2021/09/01 02:49:19;;;;;;;100.03;37.03;;;;;;;18.13;56.40;96156.56;5010516;28;20040;-64
2021/09/01 02:51:45;;;;;;;116.60;39.95;;;;;;;18.08;56.26;96146.00;5008410;28;20408;-64
2021/09/01 02:54:10;;;;;;;96.85;34.55;;;;;;;17.98;55.93;96141.00;5006971;28;20034;-64
2021/09/01 02:56:36;;;;;;;93.22;35.40;;;;;;;18.07;56.24;96152.50;5012201;28;20038;-64
2021/09/01 02:59:01;;;;;;;76.93;30.05;;;;;;;18.09;56.35;96155.63;5012692;28;20172;-65
2021/09/01 03:01:26;;;;;;;74.30;31.52;;;;;;;18.04;56.28;96150.44;5013278;28;20030;-63
2021/09/01 03:03:52;;;;;;;59.75;27.98;;;;;;;18.03;56.30;96154.25;5011351;28;20127;-64
2021/09/01 03:06:17;;;;;;;75.10;31.95;;;;;;;18.02;56.33;96149.22;5012144;28;20377;-63
2021/09/01 03:08:42;;;;;;;77.72;32.67;;;;;;;17.98;56.32;96146.38;5011995;28;20053;-64
2021/09/01 03:11:08;;;;;;;53.90;27.30;;;;;;;17.96;56.29;96148.59;5012339;28;20034;-65
2021/09/01 03:13:34;;;;;;;67.13;29.95;;;;;;;18.00;56.24;96154.91;5012439;28;20014;-64
2021/09/01 03:16:00;;;;;;;70.63;30.80;;;;;;;17.95;56.31;96151.63;5012457;28;20030;-64
2021/09/01 03:18:25;;;;;;;52.47;27.73;;;;;;;17.97;56.25;96157.47;5012442;28;20080;-64
2021/09/01 03:20:51;;;;;;;95.85;34.95;;;;;;;18.02;56.01;96157.28;5012180;28;20046;-63
2021/09/01 03:23:16;;;;;;;65.97;28.42;;;;;;;17.86;56.03;96143.56;5011772;28;20030;-64
2021/09/01 03:25:42;;;;;;;57.70;27.45;;;;;;;17.95;56.00;96157.78;5011271;28;20029;-63
2021/09/01 03:28:07;;;;;;;72.45;29.00;;;;;;;17.88;55.86;96160.22;5014140;28;20174;-64
2021/09/01 03:30:33;;;;;;;60.97;27.23;;;;;;;17.78;55.84;96141.75;5012300;28;20034;-64
2021/09/01 03:32:59;;;;;;;74.57;29.58;;;;;;;17.76;55.87;96146.66;5012037;28;20045;-64
2021/09/01 03:35:24;;;;;;;66.57;28.85;;;;;;;17.79;55.87;96154.88;5011839;28;20038;-64
2021/09/01 03:37:51;;;;;;;57.13;27.35;;;;;;;17.81;55.94;96155.34;5011296;28;20082;-65
2021/09/01 03:40:17;;;;;;;60.17;28.27;;;;;;;17.65;55.91;96143.50;5013584;28;20092;-64
2021/09/01 03:42:42;;;;;;;67.60;29.60;;;;;;;17.63;55.94;96140.38;5012025;28;20038;-64
2021/09/01 03:45:08;;;;;;;52.15;25.85;;;;;;;17.62;56.00;96147.66;5011400;28;20034;-64
2021/09/01 03:50:13;;;;;;;58.38;27.02;;;;;;;17.37;56.19;96116.28;5008552;28;20034;-70
2021/09/01 03:52:38;;;;;;;51.78;25.80;;;;;;;17.18;56.18;96095.16;5026713;28;20026;-70
2021/09/01 03:55:08;;;;;;;41.45;22.98;;;;;;;17.62;56.09;96168.38;5011396;28;20022;-70
2021/09/01 03:57:35;;;;;;;48.15;24.48;;;;;;;17.42;55.79;96143.00;5011130;28;20407;-69
2021/09/01 04:00:00;;;;;;;39.42;21.65;;;;;;;17.42;55.85;96145.69;5011438;28;20034;-70
2021/09/01 04:02:26;;;;;;;57.25;27.73;;;;;;;17.29;55.82;96131.31;5011513;28;20052;-71
2021/09/01 04:04:51;;;;;;;60.30;27.50;;;;;;;17.32;55.84;96152.19;5011326;28;20133;-69
2021/09/01 04:07:16;;;;;;;54.20;25.25;;;;;;;16.95;55.62;96105.38;5012016;28;20131;-69
2021/09/01 04:09:42;;;;;;;55.08;25.67;;;;;;;17.29;55.70;96152.84;5009561;28;20077;-70
2021/09/01 04:12:08;;;;;;;48.88;24.42;;;;;;;17.28;55.89;96156.63;5011406;28;20053;-70
2021/09/01 04:20:30;;;;;;;35.83;20.60;;;;;;;17.43;56.03;96198.34;5087766;23;20076;-69
2021/09/01 04:22:55;;;;;;;40.30;22.55;;;;;;;17.34;56.13;96178.75;5010737;28;20042;-70
2021/09/01 04:25:21;;;;;;;23.55;17.88;;;;;;;17.35;56.08;96177.66;5012596;28;20046;-69
2021/09/01 04:27:46;;;;;;;26.10;17.45;;;;;;;17.46;56.04;96197.72;4993637;28;20048;-69
2021/09/01 04:30:11;;;;;;;31.40;19.58;;;;;;;17.35;56.18;96178.47;4993170;28;20425;-70
2021/09/01 04:32:37;;;;;;;23.02;17.13;;;;;;;17.32;56.21;96183.69;4993818;28;20099;-72
2021/09/01 04:35:02;;;;;;;20.35;15.27;;;;;;;17.37;56.02;96186.19;4993276;28;20042;-70
2021/09/01 04:37:28;;;;;;;46.65;23.67;;;;;;;17.43;56.10;96184.91;5013024;28;20049;-69
2021/09/01 04:39:53;;;;;;;26.67;16.85;;;;;;;17.50;55.77;96185.19;5009900;28;20079;-70
2021/09/01 04:42:18;;;;;;;19.50;15.73;;;;;;;17.47;55.78;96179.69;5010895;28;20042;-70
2021/09/01 04:44:44;;;;;;;32.10;18.02;;;;;;;17.44;56.04;96170.34;5010745;28;20038;-70
2021/09/01 04:47:09;;;;;;;27.98;16.60;;;;;;;17.39;55.80;96163.25;5010704;28;20034;-70
2021/09/01 04:49:34;;;;;;;20.52;14.65;;;;;;;17.54;55.74;96177.28;5009865;28;20109;-70
2021/09/01 04:52:00;;;;;;;21.55;14.90;;;;;;;17.51;55.81;96175.25;5012699;28;20036;-69
2021/09/01 04:54:25;;;;;;;19.77;14.38;;;;;;;17.58;56.12;96183.59;5010334;28;20053;-69
2021/09/01 04:56:51;;;;;;;20.10;15.18;;;;;;;17.54;55.76;96180.75;5010510;28;20387;-72
2021/09/01 04:59:16;;;;;;;25.60;15.13;;;;;;;17.55;55.68;96176.16;5010053;28;20058;-70
2021/09/01 05:01:41;;;;;;;21.27;13.48;;;;;;;17.58;55.61;96175.53;4992899;28;20033;-70
2021/09/01 05:04:07;;;;;;;16.58;13.95;;;;;;;17.54;55.49;96180.75;5012556;28;20041;-70
2021/09/01 05:06:32;;;;;;;21.17;13.75;;;;;;;17.61;55.64;96175.66;5010431;28;20046;-77
2021/09/01 05:08:57;;;;;;;17.92;13.82;;;;;;;17.72;54.97;96197.63;5010725;28;20042;-77
2021/09/01 05:11:23;;;;;;;16.88;12.65;;;;;;;17.73;55.14;96184.97;5010873;28;20041;-76
2021/09/01 05:13:48;;;;;;;16.38;12.27;;;;;;;17.82;55.27;96193.81;5011370;28;20042;-76
2021/09/01 05:16:14;;;;;;;19.27;14.80;;;;;;;17.89;55.84;96194.06;4995576;28;20403;-76
2021/09/01 05:18:39;;;;;;;16.45;12.95;;;;;;;17.92;55.73;96190.75;4992913;28;20386;-75
2021/09/01 05:21:05;;;;;;;18.30;13.73;;;;;;;17.76;55.07;96165.47;5010845;28;20714;-77
2021/09/01 05:23:34;;;;;;;15.65;12.55;;;;;;;18.03;55.05;96194.66;5000243;28;20318;-81
2021/09/01 05:26:02;;;;;;;22.05;15.40;;;;;;;18.04;55.31;96193.53;5010530;28;20034;-77
2021/09/01 05:28:32;;;;;;;28.60;16.45;;;;;;;17.98;55.33;96172.50;5013511;28;20479;-73
2021/09/01 05:31:00;;;;;;;16.70;13.02;;;;;;;18.20;55.05;96191.03;4994290;28;20077;-78
2021/09/01 05:33:32;;;;;;;28.27;17.55;;;;;;;18.22;54.99;96190.72;5011542;28;20499;-81
2021/09/01 05:35:58;;;;;;;14.73;12.10;;;;;;;18.43;55.07;96207.69;5011754;28;20064;-79
2021/09/01 05:38:24;;;;;;;17.55;14.07;;;;;;;18.41;55.03;96196.44;5011817;28;20387;-79
2021/09/01 05:41:00;;;;;;;44.35;19.75;;;;;;;18.63;54.84;96208.78;5011256;28;20042;-79
2021/09/01 05:43:26;;;;;;;26.27;16.63;;;;;;;18.74;55.01;96214.63;5014138;28;20036;-80
2021/09/01 05:45:51;;;;;;;29.95;18.73;;;;;;;18.83;54.59;96201.84;5012446;28;20046;-79
2021/09/01 05:48:22;;;;;;;32.90;17.92;;;;;;;18.89;54.60;96203.25;5011569;28;20688;-72
2021/09/01 05:50:53;;;;;;;21.85;15.80;;;;;;;18.94;54.43;96203.81;5010880;28;20037;-77
2021/09/01 05:53:19;;;;;;;22.90;15.30;;;;;;;19.01;54.59;96203.28;5011046;28;20034;-85
2021/09/01 05:55:49;;;;;;;23.75;16.65;;;;;;;19.12;54.43;96211.75;5009519;28;20026;-76
2021/09/01 05:58:17;;;;;;;17.50;15.32;;;;;;;19.20;54.39;96208.19;4995013;28;20025;-78
2021/09/01 06:00:44;;;;;;;19.48;14.68;;;;;;;19.32;54.32;96192.00;5009921;28;20042;-71
2021/09/01 06:03:18;;;;;;;31.20;18.60;;;;;;;19.37;54.34;96191.00;5010577;28;20544;-79
2021/09/01 06:05:45;;;;;;;23.08;14.88;;;;;;;19.54;54.40;96193.50;5009722;28;20046;-73
2021/09/01 06:08:12;;;;;;;31.30;16.35;;;;;;;19.67;54.21;96203.22;5009245;28;20046;-72
2021/09/01 06:10:39;;;;;;;21.13;15.73;;;;;;;19.62;54.27;96184.56;4990595;28;20580;-69
2021/09/01 06:13:07;;;;;;;25.55;16.33;;;;;;;19.82;53.82;96198.31;5011500;28;20378;-70
2021/09/01 06:15:34;;;;;;;20.80;15.30;;;;;;;19.91;54.63;96202.47;5006767;28;20036;-67
2021/09/01 06:18:00;;;;;;;13.70;12.43;;;;;;;19.95;54.14;96194.47;5007639;28;20100;-71
2021/09/01 06:20:27;;;;;;;19.00;14.77;;;;;;;20.07;54.20;96199.88;5008512;28;20192;-68
2021/09/01 06:22:53;;;;;;;25.08;16.23;;;;;;;20.15;54.29;96203.56;4991730;28;20071;-68
2021/09/01 06:25:19;;;;;;;12.40;11.30;;;;;;;20.09;54.42;96186.03;4992583;28;20121;-68
2021/09/01 06:27:44;;;;;;;15.63;12.43;;;;;;;20.21;54.18;96194.09;5008992;28;20042;-67
2021/09/01 06:30:10;;;;;;;16.38;12.98;;;;;;;20.22;54.32;96190.28;5007551;28;20092;-70
2021/09/01 06:32:36;;;;;;;13.93;12.50;;;;;;;20.23;54.56;96195.34;4991175;28;20041;-69
2021/09/01 06:35:01;;;;;;;19.30;13.73;;;;;;;19.70;55.25;96193.66;5008875;28;20034;-69
2021/09/01 06:37:26;;;;;;;14.43;13.00;;;;;;;19.87;55.49;96212.38;5011134;28;20030;-74
2021/09/01 06:39:53;;;;;;;17.70;15.27;;;;;;;20.05;55.36;96212.13;5008251;28;20038;-70
2021/09/01 06:42:19;;;;;;;14.68;13.23;;;;;;;20.13;55.86;96200.44;5008863;28;20045;-68
2021/09/01 06:44:45;;;;;;;15.27;13.65;;;;;;;20.08;54.74;96208.75;5009108;28;20088;-67
2021/09/01 06:47:10;;;;;;;14.68;13.15;;;;;;;19.63;56.13;96205.03;5008783;28;20132;-70
2021/09/01 06:49:36;;;;;;;16.52;14.80;;;;;;;19.86;56.28;96201.88;5008471;28;20101;-71
2021/09/01 06:52:01;;;;;;;21.02;17.17;;;;;;;20.19;56.27;96218.75;5010624;28;20018;-71
2021/09/01 06:54:26;;;;;;;16.48;14.77;;;;;;;20.42;55.56;96210.16;4990741;28;20041;-70
2021/09/01 06:56:52;;;;;;;17.88;15.80;;;;;;;20.23;55.66;96206.16;4991070;28;20030;-65
2021/09/01 06:59:17;;;;;;;15.85;14.30;;;;;;;20.18;55.94;96219.09;5008277;28;20050;-68
2021/09/01 07:01:42;;;;;;;21.42;17.00;;;;;;;20.04;56.43;96222.16;4991201;28;20041;-71
2021/09/01 07:04:08;;;;;;;16.30;14.68;;;;;;;19.47;57.08;96221.06;5010423;28;20022;-72
2021/09/01 07:06:34;;;;;;;16.13;14.23;;;;;;;19.74;58.50;96235.84;4990835;28;20042;-71
2021/09/01 07:08:59;;;;;;;16.05;13.85;;;;;;;19.89;58.06;96236.31;5007638;28;20042;-71
2021/09/01 07:11:25;;;;;;;16.27;14.85;;;;;;;20.59;56.57;96233.50;4990645;28;20044;-70
2021/09/01 07:13:51;;;;;;;16.58;14.82;;;;;;;20.93;55.45;96227.50;5008448;28;20125;-71
2021/09/01 07:16:16;;;;;;;15.27;13.98;;;;;;;21.25;54.25;96239.22;4992850;28;20109;-70
2021/09/01 07:18:42;;;;;;;17.20;15.25;;;;;;;21.33;53.64;96242.16;5007989;28;20065;-71
2021/09/01 07:21:07;;;;;;;13.35;12.02;;;;;;;21.51;53.51;96238.78;5008147;28;20053;-71
2021/09/01 07:23:33;;;;;;;15.75;14.30;;;;;;;21.53;53.13;96235.72;5008342;28;20045;-71
2021/09/01 07:25:58;;;;;;;16.00;14.40;;;;;;;21.55;52.67;96241.59;5007824;28;20034;-73
2021/09/01 07:28:30;;;;;;;14.00;12.80;;;;;;;21.65;51.40;96254.63;5010118;28;20080;-71
2021/09/01 07:30:55;;;;;;;13.02;11.82;;;;;;;20.44;52.94;96240.34;5008516;28;20034;-71
2021/09/01 07:33:21;;;;;;;11.93;10.95;;;;;;;20.41;52.82;96254.53;5008705;28;20060;-74
2021/09/01 07:35:46;;;;;;;11.80;10.80;;;;;;;20.05;53.25;96249.94;5008655;28;20092;-75
2021/09/01 07:38:12;;;;;;;11.88;10.77;;;;;;;19.87;54.27;96270.97;5008780;28;20086;-75
2021/09/01 07:40:38;;;;;;;11.70;10.70;;;;;;;20.68;52.50;96258.47;5009074;28;20026;-75
2021/09/01 07:43:03;;;;;;;10.93;9.95;;;;;;;19.94;53.94;96258.47;4996534;28;20059;-74
2021/09/01 07:45:30;;;;;;;10.45;9.18;;;;;;;21.10;52.47;96264.31;5012008;28;20049;-74
2021/09/01 07:47:56;;;;;;;11.68;10.48;;;;;;;20.23;54.21;96271.00;4994446;28;20553;-74
2021/09/01 07:50:26;;;;;;;10.27;9.48;;;;;;;20.14;54.67;96264.13;5011584;28;20046;-73
2021/09/01 07:52:52;;;;;;;11.35;10.35;;;;;;;19.51;55.31;96268.97;5012034;28;20099;-74
2021/09/01 07:55:17;;;;;;;10.30;9.50;;;;;;;19.59;55.09;96285.06;4995950;28;20503;-74
2021/09/01 07:57:43;;;;;;;11.40;10.32;;;;;;;20.85;52.07;96246.59;5011535;28;20077;-74
2021/09/01 08:00:09;;;;;;;12.45;9.65;;;;;;;19.85;55.54;96284.78;5011190;28;20438;-75
2021/09/01 08:02:35;;;;;;;9.40;8.65;;;;;;;21.40;52.78;96282.94;5011551;28;20056;-73
2021/09/01 08:05:01;;;;;;;10.95;9.57;;;;;;;21.26;52.49;96283.31;5011600;28;20038;-74
2021/09/01 08:07:27;;;;;;;9.98;9.15;;;;;;;22.18;49.27;96271.41;4995990;28;20041;-74
2021/09/01 08:09:53;;;;;;;9.38;8.57;;;;;;;21.73;49.36;96278.03;4993196;28;20037;-74
2021/09/01 08:12:19;;;;;;;9.07;8.38;;;;;;;22.53;47.81;96284.25;5011898;28;20030;-73
2021/09/01 08:14:44;;;;;;;9.77;8.98;;;;;;;21.63;48.39;96281.22;5011644;28;20049;-73
2021/09/01 08:17:10;;;;;;;9.90;9.10;;;;;;;21.19;49.61;96283.91;5011678;28;20664;-73
2021/09/01 08:19:36;;;;;;;10.95;8.82;;;;;;;21.16;49.76;96298.13;5011046;28;20036;-74
2021/09/01 08:22:02;;;;;;;9.20;8.50;;;;;;;21.93;48.71;96286.25;5013812;28;20030;-73
2021/09/01 08:24:27;;;;;;;8.85;8.07;;;;;;;21.44;49.80;96297.34;4993665;28;20034;-73
2021/09/01 08:26:53;;;;;;;8.38;7.68;;;;;;;22.19;48.23;96288.47;5011350;28;20491;-75
2021/09/01 08:29:18;;;;;;;8.57;7.28;;;;;;;21.98;49.06;96303.03;5010907;28;20406;-72
2021/09/01 08:31:43;;;;;;;9.43;8.57;;;;;;;21.76;50.03;96296.28;5011276;28;20018;-74
2021/09/01 08:34:09;;;;;;;10.55;8.57;;;;;;;21.54;49.33;96303.03;5013377;28;20029;-74
2021/09/01 08:36:34;;;;;;;9.35;8.50;;;;;;;22.26;48.33;96294.81;4993570;28;20042;-73
2021/09/01 08:38:59;;;;;;;10.65;8.77;;;;;;;21.94;47.82;96310.28;5010279;28;20034;-77
2021/09/01 08:41:27;;;;;;;8.50;7.90;;;;;;;21.63;49.61;96299.41;5010402;28;20050;-74
2021/09/01 08:43:55;;;;;;;9.93;8.98;;;;;;;21.17;48.64;96296.97;5011115;28;20053;-73
2021/09/01 08:46:20;;;;;;;9.82;8.93;;;;;;;21.02;49.15;96292.28;5012793;28;20034;-73
2021/09/01 08:48:48;;;;;;;10.63;9.07;;;;;;;21.00;48.79;96286.44;5010558;28;20040;-73
2021/09/01 08:51:13;;;;;;;11.13;9.40;;;;;;;21.64;48.12;96290.13;5011007;28;20050;-74
2021/09/01 08:53:39;;;;;;;9.70;8.70;;;;;;;22.12;46.85;96304.56;4992525;28;20076;-77
2021/09/01 08:56:04;;;;;;;9.38;8.50;;;;;;;22.25;47.08;96297.91;4993130;28;20045;-74
2021/09/01 08:58:30;;;;;;;8.18;7.53;;;;;;;23.16;45.96;96305.78;5010553;28;20044;-74
2021/09/01 09:00:55;;;;;;;9.80;8.18;;;;;;;22.40;43.56;96302.53;5012604;28;20014;-75
2021/09/01 09:03:20;;;;;;;8.20;7.20;;;;;;;21.94;45.87;96299.44;5010727;28;20080;-75
2021/09/01 09:05:47;;;;;;;7.60;7.00;;;;;;;20.94;47.27;96306.75;4993081;28;20369;-74
2021/09/01 09:08:15;;;;;;;8.40;7.45;;;;;;;21.74;45.40;96303.97;5010716;28;20022;-76
2021/09/01 09:10:44;;;;;;;8.15;7.40;;;;;;;21.77;43.56;96300.56;5009911;28;20026;-74
2021/09/01 09:13:10;;;;;;;7.80;7.15;;;;;;;23.38;42.81;96298.84;4994336;28;20014;-73
2021/09/01 09:15:38;;;;;;;7.38;6.68;;;;;;;23.05;40.00;96283.84;5010258;28;20128;-74
2021/09/01 09:18:24;;;;;;;7.90;7.05;;;;;;;24.07;41.06;96290.81;5010222;28;20034;-74
2021/09/01 09:20:49;;;;;;;7.65;6.93;;;;;;;24.10;40.07;96284.63;4992031;28;20042;-74
2021/09/01 09:23:29;;;;;;;7.60;6.90;;;;;;;22.24;41.86;96291.69;4992698;28;20510;-74
2021/09/01 09:25:55;;;;;;;7.35;6.72;;;;;;;22.91;40.23;96286.25;5009783;28;20041;-73
2021/09/01 09:28:20;;;;;;;7.30;5.63;;;;;;;23.33;39.33;96280.13;4994283;28;20034;-73
2021/09/01 09:30:46;;;;;;;6.68;5.93;;;;;;;22.72;37.77;96276.13;5010759;28;20038;-72
2021/09/01 09:33:19;;;;;;;7.85;6.13;;;;;;;21.75;41.01;96288.50;5011219;28;20033;-78
2021/09/01 09:35:54;;;;;;;5.53;5.07;;;;;;;22.62;37.86;96286.72;4992761;28;20033;-69
2021/09/01 09:38:43;;;;;;;5.95;5.45;;;;;;;22.60;39.63;96275.47;5009977;28;20045;-73
2021/09/01 09:41:28;;;;;;;6.57;5.97;;;;;;;22.41;41.32;96281.63;5009567;28;20046;-75
2021/09/01 09:43:59;;;;;;;9.05;6.97;;;;;;;22.69;40.72;96257.06;5010214;28;20057;-73
2021/09/01 09:46:25;;;;;;;6.55;5.95;;;;;;;22.55;41.91;96290.09;5011790;28;20487;-72
2021/09/01 09:48:52;;;;;;;6.90;6.28;;;;;;;22.08;40.24;96276.56;5009195;28;20081;-72
2021/09/01 09:51:19;;;;;;;5.93;5.53;;;;;;;22.94;39.71;96266.56;5009712;28;20042;-73
2021/09/01 09:53:49;;;;;;;6.47;5.97;;;;;;;21.78;41.39;96274.28;5009657;28;20033;-68
2021/09/01 09:56:25;;;;;;;6.28;5.78;;;;;;;22.24;39.27;96270.00;5009505;28;20126;-75
2021/09/01 09:58:53;;;;;;;7.25;5.85;;;;;;;21.17;41.52;96267.22;5010863;28;20048;-79
2021/09/01 10:01:20;;;;;;;5.95;5.45;;;;;;;22.79;39.49;96278.22;5013974;28;20109;-82
2021/09/01 10:03:47;;;;;;;5.45;4.90;;;;;;;22.54;40.14;96281.16;5011975;28;20100;-81
2021/09/01 10:06:16;;;;;;;5.10;4.60;;;;;;;22.12;39.00;96283.66;5011559;28;20073;-82
2021/09/01 10:08:41;;;;;;;5.22;4.72;;;;;;;22.28;38.65;96262.75;5011090;28;20069;-80
2021/09/01 10:11:10;;;;;;;5.63;5.05;;;;;;;22.54;37.51;96281.16;4993728;28;20317;-82
2021/09/01 10:13:37;;;;;;;5.72;5.22;;;;;;;22.75;35.97;96282.78;5012069;28;20033;-81
2021/09/01 10:16:23;;;;;;;5.85;5.22;;;;;;;23.43;34.31;96276.03;4996525;28;20471;-82
2021/09/01 10:19:00;;;;;;;5.15;4.75;;;;;;;23.65;33.70;96279.97;5010957;28;20046;-81
2021/09/01 10:21:28;;;;;;;4.93;4.53;;;;;;;22.51;35.96;96273.72;5011252;28;20104;-82
2021/09/01 10:23:54;;;;;;;5.50;5.00;;;;;;;22.70;35.77;96269.50;5011596;28;20092;-81
2021/09/01 10:26:22;;;;;;;5.20;4.60;;;;;;;24.52;34.23;96276.41;4993438;28;20037;-83
2021/09/01 10:28:48;;;;;;;4.90;4.57;;;;;;;24.66;33.76;96275.81;5010963;28;20029;-84
2021/09/01 10:31:16;;;;;;;5.43;5.03;;;;;;;25.14;32.55;96274.16;5013300;28;20053;-82
2021/09/01 10:33:51;;;;;;;5.13;4.63;;;;;;;25.73;32.56;96260.75;5021815;23;20064;-71
2021/09/01 10:36:23;;;;;;;6.28;5.60;;;;;;;26.60;31.82;96265.81;5009042;28;20038;-73
2021/09/01 10:38:52;;;;;;;5.55;5.15;;;;;;;26.78;31.66;96269.44;5024632;28;20823;-73
2021/09/01 10:41:30;;;;;;;5.53;5.03;;;;;;;26.95;30.83;96265.22;5038401;28;20064;-73
2021/09/01 10:44:11;;;;;;;5.43;4.93;;;;;;;26.91;31.07;96259.72;5048372;28;20144;-75
2021/09/01 10:46:48;;;;;;;6.28;5.78;;;;;;;26.86;31.58;96251.91;5048593;28;20025;-75
2021/09/01 10:49:14;;;;;;;5.63;5.22;;;;;;;25.48;32.84;96255.06;5050143;28;20056;-73
2021/09/01 10:51:48;;;;;;;7.07;5.22;;;;;;;24.99;33.16;96234.25;5030780;28;20091;-75
2021/09/01 10:54:40;;;;;;;6.20;5.72;;;;;;;25.20;32.58;96244.66;5031043;28;20041;-74
2021/09/01 10:57:27;;;;;;;6.70;6.20;;;;;;;25.41;31.64;96239.44;5043098;28;20190;-75
2021/09/01 10:59:58;;;;;;;6.18;5.63;;;;;;;25.25;32.55;96189.09;5048014;28;20037;-74
2021/09/01 11:02:25;;;;;;;6.10;5.60;;;;;;;23.93;33.42;96206.31;5048646;28;20397;-74
2021/09/01 11:04:53;;;;;;;5.82;5.32;;;;;;;24.26;34.40;96249.97;5048639;28;20039;-73
2021/09/01 11:07:23;;;;;;;6.28;5.72;;;;;;;23.14;35.66;96245.66;5050376;28;20030;-73
2021/09/01 11:09:55;;;;;;;7.40;6.80;;;;;;;24.01;34.97;96248.78;5047349;28;20041;-74
2021/09/01 11:12:21;;;;;;;6.97;6.28;;;;;;;24.51;33.46;96246.81;5047916;28;20056;-74
2021/09/01 11:14:51;;;;;;;8.32;6.25;;;;;;;24.78;33.07;96253.06;5048384;28;20049;-74
2021/09/01 11:17:22;;;;;;;5.43;5.00;;;;;;;25.14;33.00;96232.53;5034389;28;20041;-74
2021/09/01 11:19:55;;;;;;;6.40;5.72;;;;;;;23.40;35.00;96249.63;5051821;28;20021;-74
2021/09/01 11:22:26;;;;;;;6.30;5.70;;;;;;;25.11;32.67;96233.25;5054274;28;20032;-73
2021/09/01 11:24:53;;;;;;;6.68;6.07;;;;;;;24.97;31.80;96247.44;5051618;28;20401;-74
2021/09/01 11:27:25;;;;;;;7.88;5.55;;;;;;;25.15;31.96;96248.50;5050245;28;20040;-74
2021/09/01 11:29:51;;;;;;;;;;;;;;;26.06;31.69;96243.59;5051921;28;20047;-75